sensor_id;sensor_type;location;lat;lon;timestamp;pressure;altitude;pressure_sealevel;temperature;humidity
23363;BME280;11853;48.080;11.960;2023-05-19T00:01:11;95257.00;;;9.50;100.00
23363;BME280;11853;48.080;11.960;2023-05-19T00:03:56;95246.00;;;9.64;100.00
23363;BME280;11853;48.080;11.960;2023-05-19T00:06:24;95247.25;;;9.60;100.00
23363;BME280;11853;48.080;11.960;2023-05-19T00:08:59;95250.59;;;9.62;100.00
23363;BME280;11853;48.080;11.960;2023-05-19T00:11:26;95240.28;;;9.59;100.00
23363;BME280;11853;48.080;11.960;2023-05-19T00:13:53;95241.94;;;9.60;100.00
23363;BME280;11853;48.080;11.960;2023-05-19T00:16:20;95239.28;;;9.51;100.00
23363;BME280;11853;48.080;11.960;2023-05-19T00:18:46;95230.47;;;9.40;100.00
23363;BME280;11853;48.080;11.960;2023-05-19T00:21:12;95233.28;;;9.39;100.00
23363;BME280;11853;48.080;11.960;2023-05-19T00:23:38;95241.91;;;9.41;100.00
23363;BME280;11853;48.080;11.960;2023-05-19T00:26:03;95228.09;;;9.47;100.00
23363;BME280;11853;48.080;11.960;2023-05-19T00:28:29;95226.06;;;9.60;100.00
23363;BME280;11853;48.080;11.960;2023-05-19T00:30:55;95225.06;;;9.52;100.00
23363;BME280;11853;48.080;11.960;2023-05-19T00:33:20;95216.84;;;9.45;100.00
23363;BME280;11853;48.080;11.960;2023-05-19T00:35:46;95212.81;;;9.60;100.00
23363;BME280;11853;48.080;11.960;2023-05-19T00:38:11;95215.03;;;9.55;100.00
23363;BME280;11853;48.080;11.960;2023-05-19T00:40:37;95219.22;;;9.58;100.00
23363;BME280;11853;48.080;11.960;2023-05-19T00:43:03;95220.88;;;9.49;100.00
23363;BME280;11853;48.080;11.960;2023-05-19T00:45:33;95211.00;;;9.41;100.00
23363;BME280;11853;48.080;11.960;2023-05-19T00:47:59;95211.97;;;9.50;100.00
23363;BME280;11853;48.080;11.960;2023-05-19T00:50:25;95208.47;;;9.50;100.00
23363;BME280;11853;48.080;11.960;2023-05-19T00:52:53;95200.94;;;9.45;100.00
23363;BME280;11853;48.080;11.960;2023-05-19T00:55:25;95208.06;;;9.54;100.00
23363;BME280;11853;48.080;11.960;2023-05-19T00:57:53;95194.13;;;9.52;100.00
23363;BME280;11853;48.080;11.960;2023-05-19T01:00:19;95198.72;;;9.50;100.00
23363;BME280;11853;48.080;11.960;2023-05-19T01:02:45;95187.00;;;9.53;100.00
23363;BME280;11853;48.080;11.960;2023-05-19T01:05:11;95196.09;;;9.50;100.00
23363;BME280;11853;48.080;11.960;2023-05-19T01:07:38;95194.00;;;9.54;100.00
23363;BME280;11853;48.080;11.960;2023-05-19T01:10:03;95179.06;;;9.33;100.00
23363;BME280;11853;48.080;11.960;2023-05-19T01:12:30;95184.75;;;9.38;100.00
23363;BME280;11853;48.080;11.960;2023-05-19T01:14:57;95192.19;;;9.44;100.00
23363;BME280;11853;48.080;11.960;2023-05-19T01:17:29;95194.38;;;9.39;100.00
23363;BME280;11853;48.080;11.960;2023-05-19T01:31:14;95205.81;;;9.40;100.00
23363;BME280;11853;48.080;11.960;2023-05-19T01:33:42;95198.84;;;9.39;100.00
23363;BME280;11853;48.080;11.960;2023-05-19T01:36:10;95201.03;;;9.24;100.00
23363;BME280;11853;48.080;11.960;2023-05-19T01:38:37;95200.63;;;9.38;100.00
23363;BME280;11853;48.080;11.960;2023-05-19T01:41:05;95206.09;;;9.37;100.00
23363;BME280;11853;48.080;11.960;2023-05-19T01:43:32;95202.34;;;9.49;100.00
23363;BME280;11853;48.080;11.960;2023-05-19T01:45:58;95205.53;;;9.43;100.00
23363;BME280;11853;48.080;11.960;2023-05-19T01:48:26;95200.91;;;9.35;100.00
23363;BME280;11853;48.080;11.960;2023-05-19T01:50:51;95217.66;;;9.36;100.00
23363;BME280;11853;48.080;11.960;2023-05-19T01:53:17;95201.63;;;9.28;100.00
23363;BME280;11853;48.080;11.960;2023-05-19T01:55:48;95209.13;;;9.32;100.00
23363;BME280;11853;48.080;11.960;2023-05-19T02:04:04;95211.94;;;9.31;100.00
23363;BME280;11853;48.080;11.960;2023-05-19T02:06:45;95213.00;;;9.18;100.00
23363;BME280;11853;48.080;11.960;2023-05-19T02:11:59;95202.44;;;9.28;100.00
23363;BME280;11853;48.080;11.960;2023-05-19T02:14:29;95208.31;;;9.32;100.00
23363;BME280;11853;48.080;11.960;2023-05-19T02:16:59;95203.00;;;9.32;100.00
23363;BME280;11853;48.080;11.960;2023-05-19T02:19:29;95196.59;;;9.24;100.00
23363;BME280;11853;48.080;11.960;2023-05-19T02:21:56;95192.84;;;9.27;100.00
23363;BME280;11853;48.080;11.960;2023-05-19T02:24:22;95198.69;;;9.31;100.00
23363;BME280;11853;48.080;11.960;2023-05-19T02:26:48;95190.75;;;9.31;100.00
23363;BME280;11853;48.080;11.960;2023-05-19T02:29:14;95190.44;;;9.14;100.00
23363;BME280;11853;48.080;11.960;2023-05-19T02:31:40;95192.38;;;9.12;100.00
23363;BME280;11853;48.080;11.960;2023-05-19T02:34:06;95186.38;;;9.10;100.00
23363;BME280;11853;48.080;11.960;2023-05-19T02:36:33;95187.28;;;9.30;100.00
23363;BME280;11853;48.080;11.960;2023-05-19T02:39:00;95186.84;;;9.25;100.00
23363;BME280;11853;48.080;11.960;2023-05-19T02:41:29;95181.66;;;9.23;100.00
23363;BME280;11853;48.080;11.960;2023-05-19T02:43:55;95178.19;;;9.33;100.00
23363;BME280;11853;48.080;11.960;2023-05-19T02:46:22;95173.16;;;9.30;100.00
23363;BME280;11853;48.080;11.960;2023-05-19T02:48:47;95181.00;;;9.21;100.00
23363;BME280;11853;48.080;11.960;2023-05-19T02:51:13;95180.28;;;9.29;100.00
23363;BME280;11853;48.080;11.960;2023-05-19T02:53:39;95176.56;;;9.41;100.00
23363;BME280;11853;48.080;11.960;2023-05-19T02:56:04;95177.94;;;9.36;100.00
23363;BME280;11853;48.080;11.960;2023-05-19T02:58:30;95171.78;;;9.25;100.00
23363;BME280;11853;48.080;11.960;2023-05-19T03:00:56;95173.28;;;9.18;100.00
23363;BME280;11853;48.080;11.960;2023-05-19T03:03:21;95167.75;;;9.21;100.00
23363;BME280;11853;48.080;11.960;2023-05-19T03:05:47;95175.38;;;9.15;100.00
23363;BME280;11853;48.080;11.960;2023-05-19T03:08:13;95166.47;;;9.16;100.00
23363;BME280;11853;48.080;11.960;2023-05-19T03:10:38;95176.81;;;9.29;100.00
23363;BME280;11853;48.080;11.960;2023-05-19T03:13:04;95171.22;;;9.32;100.00
23363;BME280;11853;48.080;11.960;2023-05-19T03:15:30;95167.19;;;9.28;100.00
23363;BME280;11853;48.080;11.960;2023-05-19T03:17:56;95170.53;;;9.30;100.00
23363;BME280;11853;48.080;11.960;2023-05-19T03:20:22;95165.66;;;9.25;100.00
23363;BME280;11853;48.080;11.960;2023-05-19T03:22:48;95168.28;;;9.15;100.00
23363;BME280;11853;48.080;11.960;2023-05-19T03:25:14;95173.16;;;9.10;100.00
23363;BME280;11853;48.080;11.960;2023-05-19T03:27:40;95176.38;;;9.23;100.00
23363;BME280;11853;48.080;11.960;2023-05-19T03:30:06;95179.84;;;9.14;100.00
23363;BME280;11853;48.080;11.960;2023-05-19T03:32:32;95176.09;;;9.27;100.00
23363;BME280;11853;48.080;11.960;2023-05-19T03:34:58;95179.88;;;9.34;100.00
23363;BME280;11853;48.080;11.960;2023-05-19T03:37:23;95174.72;;;9.22;100.00
23363;BME280;11853;48.080;11.960;2023-05-19T03:39:49;95175.25;;;9.26;100.00
23363;BME280;11853;48.080;11.960;2023-05-19T03:42:15;95168.16;;;9.17;100.00
23363;BME280;11853;48.080;11.960;2023-05-19T03:44:40;95164.81;;;9.24;100.00
23363;BME280;11853;48.080;11.960;2023-05-19T03:50:27;95169.25;;;9.14;100.00
23363;BME280;11853;48.080;11.960;2023-05-19T03:52:53;95164.22;;;9.11;100.00
23363;BME280;11853;48.080;11.960;2023-05-19T03:55:19;95169.13;;;9.25;100.00
23363;BME280;11853;48.080;11.960;2023-05-19T03:57:45;95172.34;;;9.29;100.00
23363;BME280;11853;48.080;11.960;2023-05-19T04:00:12;95167.59;;;9.23;100.00
23363;BME280;11853;48.080;11.960;2023-05-19T04:02:45;95162.31;;;9.23;100.00
23363;BME280;11853;48.080;11.960;2023-05-19T04:05:10;95165.94;;;9.22;100.00
23363;BME280;11853;48.080;11.960;2023-05-19T04:07:36;95165.09;;;9.41;100.00
23363;BME280;11853;48.080;11.960;2023-05-19T04:10:03;95166.78;;;9.32;100.00
23363;BME280;11853;48.080;11.960;2023-05-19T04:12:30;95167.88;;;9.30;100.00
23363;BME280;11853;48.080;11.960;2023-05-19T04:14:56;95166.22;;;9.19;100.00
23363;BME280;11853;48.080;11.960;2023-05-19T04:17:21;95167.03;;;9.19;100.00
23363;BME280;11853;48.080;11.960;2023-05-19T04:19:51;95164.81;;;9.24;100.00
23363;BME280;11853;48.080;11.960;2023-05-19T04:22:16;95162.91;;;9.36;100.00
23363;BME280;11853;48.080;11.960;2023-05-19T04:24:42;95172.09;;;9.42;100.00
23363;BME280;11853;48.080;11.960;2023-05-19T04:27:08;95170.25;;;9.33;100.00
23363;BME280;11853;48.080;11.960;2023-05-19T04:29:37;95168.88;;;9.38;100.00
23363;BME280;11853;48.080;11.960;2023-05-19T04:32:04;95170.56;;;9.39;100.00
23363;BME280;11853;48.080;11.960;2023-05-19T04:34:35;95168.47;;;9.33;100.00
23363;BME280;11853;48.080;11.960;2023-05-19T04:37:06;95174.31;;;9.37;100.00
23363;BME280;11853;48.080;11.960;2023-05-19T04:39:32;95172.78;;;9.44;100.00
23363;BME280;11853;48.080;11.960;2023-05-19T04:41:58;95176.16;;;9.56;100.00
23363;BME280;11853;48.080;11.960;2023-05-19T04:44:24;95177.13;;;9.55;100.00
23363;BME280;11853;48.080;11.960;2023-05-19T04:46:50;95171.66;;;9.46;100.00
23363;BME280;11853;48.080;11.960;2023-05-19T04:49:19;95174.59;;;9.43;100.00
23363;BME280;11853;48.080;11.960;2023-05-19T04:51:45;95172.25;;;9.50;100.00
23363;BME280;11853;48.080;11.960;2023-05-19T04:54:14;95164.84;;;9.63;100.00
23363;BME280;11853;48.080;11.960;2023-05-19T04:56:40;95168.75;;;9.59;100.00
23363;BME280;11853;48.080;11.960;2023-05-19T04:59:06;95166.94;;;9.69;100.00
23363;BME280;11853;48.080;11.960;2023-05-19T05:01:34;95161.25;;;9.64;100.00
23363;BME280;11853;48.080;11.960;2023-05-19T05:04:05;95157.88;;;9.62;100.00
23363;BME280;11853;48.080;11.960;2023-05-19T05:06:31;95162.50;;;9.70;100.00
23363;BME280;11853;48.080;11.960;2023-05-19T05:08:57;95156.78;;;9.84;100.00
23363;BME280;11853;48.080;11.960;2023-05-19T05:11:24;95157.31;;;9.88;100.00
23363;BME280;11853;48.080;11.960;2023-05-19T05:13:51;95159.41;;;9.94;100.00
23363;BME280;11853;48.080;11.960;2023-05-19T05:16:16;95147.25;;;10.01;100.00
23363;BME280;11853;48.080;11.960;2023-05-19T05:18:43;95156.19;;;10.00;100.00
23363;BME280;11853;48.080;11.960;2023-05-19T05:21:09;95155.16;;;10.21;100.00
23363;BME280;11853;48.080;11.960;2023-05-19T05:23:35;95161.03;;;10.24;100.00
23363;BME280;11853;48.080;11.960;2023-05-19T05:26:04;95150.72;;;10.31;100.00
23363;BME280;11853;48.080;11.960;2023-05-19T05:28:33;95139.97;;;10.32;100.00
23363;BME280;11853;48.080;11.960;2023-05-19T05:30:59;95143.28;;;10.44;100.00
23363;BME280;11853;48.080;11.960;2023-05-19T05:33:25;95147.97;;;10.60;100.00
23363;BME280;11853;48.080;11.960;2023-05-19T05:35:51;95143.63;;;10.69;100.00
23363;BME280;11853;48.080;11.960;2023-05-19T05:38:17;95147.91;;;10.79;100.00
23363;BME280;11853;48.080;11.960;2023-05-19T05:40:43;95148.44;;;10.83;100.00
23363;BME280;11853;48.080;11.960;2023-05-19T05:43:08;95139.00;;;10.71;100.00
23363;BME280;11853;48.080;11.960;2023-05-19T05:45:34;95151.28;;;10.72;100.00
23363;BME280;11853;48.080;11.960;2023-05-19T05:48:00;95149.06;;;10.67;100.00
23363;BME280;11853;48.080;11.960;2023-05-19T05:50:26;95157.88;;;10.68;100.00
23363;BME280;11853;48.080;11.960;2023-05-19T05:52:52;95159.13;;;10.64;100.00
23363;BME280;11853;48.080;11.960;2023-05-19T05:55:20;95161.25;;;10.60;100.00
23363;BME280;11853;48.080;11.960;2023-05-19T05:57:47;95161.38;;;10.58;100.00
23363;BME280;11853;48.080;11.960;2023-05-19T06:00:15;95154.13;;;10.60;100.00
23363;BME280;11853;48.080;11.960;2023-05-19T06:02:44;95163.84;;;10.70;100.00
23363;BME280;11853;48.080;11.960;2023-05-19T06:05:14;95159.66;;;10.77;100.00
23363;BME280;11853;48.080;11.960;2023-05-19T06:07:40;95164.25;;;10.85;100.00
23363;BME280;11853;48.080;11.960;2023-05-19T06:10:07;95160.16;;;10.90;100.00
23363;BME280;11853;48.080;11.960;2023-05-19T06:12:34;95162.72;;;10.82;100.00
23363;BME280;11853;48.080;11.960;2023-05-19T06:15:04;95167.91;;;10.74;100.00
23363;BME280;11853;48.080;11.960;2023-05-19T06:17:30;95164.66;;;10.80;100.00
23363;BME280;11853;48.080;11.960;2023-05-19T06:19:58;95162.66;;;10.92;100.00
23363;BME280;11853;48.080;11.960;2023-05-19T06:22:24;95151.53;;;10.78;100.00
23363;BME280;11853;48.080;11.960;2023-05-19T06:24:50;95161.19;;;10.79;100.00
23363;BME280;11853;48.080;11.960;2023-05-19T06:27:16;95161.19;;;10.79;100.00
23363;BME280;11853;48.080;11.960;2023-05-19T06:29:41;95163.25;;;10.86;100.00
23363;BME280;11853;48.080;11.960;2023-05-19T06:32:07;95164.00;;;10.96;100.00
23363;BME280;11853;48.080;11.960;2023-05-19T06:34:33;95153.69;;;10.93;100.00
23363;BME280;11853;48.080;11.960;2023-05-19T06:36:58;95161.41;;;10.86;100.00
23363;BME280;11853;48.080;11.960;2023-05-19T06:39:26;95160.22;;;10.98;100.00
23363;BME280;11853;48.080;11.960;2023-05-19T06:41:52;95161.63;;;11.02;100.00
23363;BME280;11853;48.080;11.960;2023-05-19T06:44:18;95170.72;;;11.00;100.00
23363;BME280;11853;48.080;11.960;2023-05-19T06:46:43;95165.94;;;11.03;100.00
23363;BME280;11853;48.080;11.960;2023-05-19T06:49:10;95158.06;;;11.12;100.00
23363;BME280;11853;48.080;11.960;2023-05-19T06:51:35;95163.44;;;11.02;100.00
23363;BME280;11853;48.080;11.960;2023-05-19T06:54:01;95171.56;;;11.00;100.00
23363;BME280;11853;48.080;11.960;2023-05-19T06:56:27;95160.03;;;11.10;100.00
23363;BME280;11853;48.080;11.960;2023-05-19T06:58:53;95160.94;;;11.00;100.00
23363;BME280;11853;48.080;11.960;2023-05-19T07:01:18;95154.63;;;11.01;100.00
23363;BME280;11853;48.080;11.960;2023-05-19T07:03:44;95165.16;;;10.93;100.00
23363;BME280;11853;48.080;11.960;2023-05-19T07:06:11;95157.28;;;11.01;100.00
23363;BME280;11853;48.080;11.960;2023-05-19T07:08:37;95150.41;;;11.09;100.00
23363;BME280;11853;48.080;11.960;2023-05-19T07:11:02;95153.38;;;11.05;100.00
23363;BME280;11853;48.080;11.960;2023-05-19T07:13:28;95150.41;;;11.09;100.00
23363;BME280;11853;48.080;11.960;2023-05-19T07:15:54;95145.78;;;11.11;100.00
23363;BME280;11853;48.080;11.960;2023-05-19T07:18:22;95147.66;;;11.00;100.00
23363;BME280;11853;48.080;11.960;2023-05-19T07:20:51;95153.06;;;11.09;100.00
23363;BME280;11853;48.080;11.960;2023-05-19T07:23:17;95146.56;;;11.21;100.00
23363;BME280;11853;48.080;11.960;2023-05-19T07:25:42;95148.03;;;11.33;100.00
23363;BME280;11853;48.080;11.960;2023-05-19T07:28:08;95147.56;;;11.20;100.00
23363;BME280;11853;48.080;11.960;2023-05-19T07:30:34;95154.84;;;11.36;100.00
23363;BME280;11853;48.080;11.960;2023-05-19T07:32:59;95147.09;;;11.24;100.00
23363;BME280;11853;48.080;11.960;2023-05-19T07:35:25;95152.97;;;11.28;100.00
23363;BME280;11853;48.080;11.960;2023-05-19T07:37:51;95153.91;;;11.27;100.00
23363;BME280;11853;48.080;11.960;2023-05-19T07:40:17;95157.91;;;11.41;100.00
23363;BME280;11853;48.080;11.960;2023-05-19T07:42:43;95160.22;;;11.26;100.00
23363;BME280;11853;48.080;11.960;2023-05-19T07:45:09;95152.34;;;11.34;100.00
23363;BME280;11853;48.080;11.960;2023-05-19T07:47:35;95148.78;;;11.25;100.00
23363;BME280;11853;48.080;11.960;2023-05-19T07:50:01;95156.00;;;11.33;100.00
23363;BME280;11853;48.080;11.960;2023-05-19T07:52:27;95159.91;;;11.57;100.00
23363;BME280;11853;48.080;11.960;2023-05-19T07:54:53;95161.25;;;11.79;100.00
23363;BME280;11853;48.080;11.960;2023-05-19T07:57:18;95154.06;;;11.71;100.00
23363;BME280;11853;48.080;11.960;2023-05-19T07:59:44;95158.59;;;11.79;100.00
23363;BME280;11853;48.080;11.960;2023-05-19T08:02:10;95146.31;;;11.60;100.00
23363;BME280;11853;48.080;11.960;2023-05-19T08:04:36;95150.00;;;11.49;100.00
23363;BME280;11853;48.080;11.960;2023-05-19T08:07:02;95157.84;;;11.50;100.00
23363;BME280;11853;48.080;11.960;2023-05-19T08:09:28;95153.59;;;11.58;100.00
23363;BME280;11853;48.080;11.960;2023-05-19T08:11:54;95151.69;;;11.68;100.00
23363;BME280;11853;48.080;11.960;2023-05-19T08:14:19;95159.97;;;11.83;100.00
23363;BME280;11853;48.080;11.960;2023-05-19T08:16:48;95157.50;;;11.99;100.00
23363;BME280;11853;48.080;11.960;2023-05-19T08:19:13;95145.81;;;12.18;100.00
23363;BME280;11853;48.080;11.960;2023-05-19T08:21:39;95144.59;;;12.56;100.00
23363;BME280;11853;48.080;11.960;2023-05-19T08:24:07;95150.22;;;12.79;99.49
23363;BME280;11853;48.080;11.960;2023-05-19T08:26:33;95154.78;;;12.69;99.04
23363;BME280;11853;48.080;11.960;2023-05-19T08:28:59;95155.56;;;12.61;100.00
23363;BME280;11853;48.080;11.960;2023-05-19T08:31:25;95148.03;;;12.49;100.00
23363;BME280;11853;48.080;11.960;2023-05-19T08:33:50;95147.84;;;12.50;100.00
23363;BME280;11853;48.080;11.960;2023-05-19T08:36:16;95143.22;;;12.52;100.00
23363;BME280;11853;48.080;11.960;2023-05-19T08:38:42;95139.25;;;12.30;100.00
23363;BME280;11853;48.080;11.960;2023-05-19T08:41:09;95147.19;;;12.22;100.00
23363;BME280;11853;48.080;11.960;2023-05-19T08:43:35;95147.28;;;12.12;100.00
23363;BME280;11853;48.080;11.960;2023-05-19T08:46:02;95147.22;;;12.04;100.00
23363;BME280;11853;48.080;11.960;2023-05-19T08:48:29;95131.63;;;12.09;100.00
23363;BME280;11853;48.080;11.960;2023-05-19T08:51:16;95137.16;;;12.16;100.00
23363;BME280;11853;48.080;11.960;2023-05-19T08:53:56;95140.41;;;12.28;100.00
23363;BME280;11853;48.080;11.960;2023-05-19T08:56:25;95141.31;;;12.18;100.00
23363;BME280;11853;48.080;11.960;2023-05-19T08:58:52;95122.50;;;12.12;100.00
23363;BME280;11853;48.080;11.960;2023-05-19T09:01:18;95138.72;;;12.27;100.00
23363;BME280;11853;48.080;11.960;2023-05-19T09:03:45;95138.97;;;12.33;100.00
23363;BME280;11853;48.080;11.960;2023-05-19T09:06:14;95139.41;;;12.29;100.00
23363;BME280;11853;48.080;11.960;2023-05-19T09:08:41;95146.13;;;12.41;100.00
23363;BME280;11853;48.080;11.960;2023-05-19T09:11:10;95138.34;;;12.39;100.00
23363;BME280;11853;48.080;11.960;2023-05-19T09:13:36;95145.31;;;12.67;100.00
23363;BME280;11853;48.080;11.960;2023-05-19T09:16:02;95142.28;;;12.61;100.00
23363;BME280;11853;48.080;11.960;2023-05-19T09:18:29;95138.09;;;12.59;100.00
23363;BME280;11853;48.080;11.960;2023-05-19T09:21:01;95141.44;;;12.61;100.00
23363;BME280;11853;48.080;11.960;2023-05-19T09:23:29;95143.84;;;12.72;100.00
23363;BME280;11853;48.080;11.960;2023-05-19T09:25:55;95143.16;;;12.70;100.00
23363;BME280;11853;48.080;11.960;2023-05-19T09:28:26;95140.16;;;12.73;100.00
23363;BME280;11853;48.080;11.960;2023-05-19T09:31:04;95127.97;;;12.97;100.00
23363;BME280;11853;48.080;11.960;2023-05-19T09:33:35;95129.69;;;13.06;100.00
23363;BME280;11853;48.080;11.960;2023-05-19T09:36:02;95128.69;;;13.15;100.00
23363;BME280;11853;48.080;11.960;2023-05-19T09:38:30;95133.03;;;13.08;100.00
23363;BME280;11853;48.080;11.960;2023-05-19T09:40:57;95134.59;;;12.93;99.25
23363;BME280;11853;48.080;11.960;2023-05-19T09:43:26;95139.22;;;12.82;100.00
23363;BME280;11853;48.080;11.960;2023-05-19T09:46:08;95131.88;;;12.76;100.00
23363;BME280;11853;48.080;11.960;2023-05-19T09:48:40;95135.88;;;12.80;100.00
23363;BME280;11853;48.080;11.960;2023-05-19T09:51:12;95140.22;;;12.81;100.00
23363;BME280;11853;48.080;11.960;2023-05-19T09:53:38;95128.69;;;12.73;100.00
23363;BME280;11853;48.080;11.960;2023-05-19T09:56:07;95136.25;;;12.85;100.00
23363;BME280;11853;48.080;11.960;2023-05-19T09:58:37;95126.06;;;12.81;100.00
23363;BME280;11853;48.080;11.960;2023-05-19T10:01:07;95132.75;;;12.85;100.00
23363;BME280;11853;48.080;11.960;2023-05-19T10:03:33;95132.22;;;12.81;100.00
23363;BME280;11853;48.080;11.960;2023-05-19T10:06:05;95128.19;;;12.69;100.00
23363;BME280;11853;48.080;11.960;2023-05-19T10:08:33;95131.16;;;12.66;100.00
23363;BME280;11853;48.080;11.960;2023-05-19T10:11:00;95129.84;;;12.70;100.00
23363;BME280;11853;48.080;11.960;2023-05-19T10:13:28;95117.94;;;12.82;100.00
23363;BME280;11853;48.080;11.960;2023-05-19T10:15:54;95130.72;;;12.79;100.00
23363;BME280;11853;48.080;11.960;2023-05-19T10:18:21;95120.00;;;12.97;100.00
23363;BME280;11853;48.080;11.960;2023-05-19T10:20:49;95121.50;;;12.99;100.00
23363;BME280;11853;48.080;11.960;2023-05-19T10:23:15;95125.50;;;13.03;100.00
23363;BME280;11853;48.080;11.960;2023-05-19T10:25:41;95125.06;;;13.16;100.00
23363;BME280;11853;48.080;11.960;2023-05-19T10:28:12;95119.09;;;13.22;100.00
23363;BME280;11853;48.080;11.960;2023-05-19T10:30:40;95120.03;;;13.13;100.00
23363;BME280;11853;48.080;11.960;2023-05-19T10:33:10;95118.97;;;13.32;100.00
23363;BME280;11853;48.080;11.960;2023-05-19T10:36:04;95112.34;;;13.52;95.46
23363;BME280;11853;48.080;11.960;2023-05-19T10:44:08;95107.50;;;13.48;99.69
23363;BME280;11853;48.080;11.960;2023-05-19T10:46:39;95100.84;;;13.60;100.00
23363;BME280;11853;48.080;11.960;2023-05-19T10:49:07;95103.53;;;13.68;100.00
23363;BME280;11853;48.080;11.960;2023-05-19T10:51:33;95102.38;;;13.71;99.83
23363;BME280;11853;48.080;11.960;2023-05-19T10:54:07;95106.22;;;13.77;100.00
23363;BME280;11853;48.080;11.960;2023-05-19T10:56:38;95103.38;;;13.78;98.23
23363;BME280;11853;48.080;11.960;2023-05-19T10:59:06;95099.88;;;13.78;99.72
23363;BME280;11853;48.080;11.960;2023-05-19T11:01:34;95103.53;;;13.85;93.66
23363;BME280;11853;48.080;11.960;2023-05-19T11:04:08;95114.84;;;13.79;94.38
23363;BME280;11853;48.080;11.960;2023-05-19T11:06:38;95106.53;;;13.57;96.31
23363;BME280;11853;48.080;11.960;2023-05-19T11:11:49;95104.16;;;13.38;97.46
23363;BME280;11853;48.080;11.960;2023-05-19T11:14:17;95119.63;;;13.34;97.92
23363;BME280;11853;48.080;11.960;2023-05-19T11:16:48;95117.06;;;13.24;99.05
23363;BME280;11853;48.080;11.960;2023-05-19T11:19:33;95110.34;;;13.04;100.00
23363;BME280;11853;48.080;11.960;2023-05-19T11:22:10;95103.03;;;13.06;100.00
23363;BME280;11853;48.080;11.960;2023-05-19T11:24:44;95103.75;;;13.16;100.00
23363;BME280;11853;48.080;11.960;2023-05-19T11:27:17;95101.47;;;13.29;100.00
23363;BME280;11853;48.080;11.960;2023-05-19T11:29:43;95092.50;;;13.47;98.10
23363;BME280;11853;48.080;11.960;2023-05-19T11:32:10;95088.31;;;13.36;98.37
23363;BME280;11853;48.080;11.960;2023-05-19T11:34:37;95097.84;;;13.47;99.42
23363;BME280;11853;48.080;11.960;2023-05-19T11:37:06;95093.34;;;13.56;99.06
23363;BME280;11853;48.080;11.960;2023-05-19T11:39:33;95095.34;;;13.62;99.63
23363;BME280;11853;48.080;11.960;2023-05-19T11:41:59;95101.88;;;13.59;97.29
23363;BME280;11853;48.080;11.960;2023-05-19T11:44:25;95109.03;;;13.67;96.41
23363;BME280;11853;48.080;11.960;2023-05-19T11:46:52;95106.50;;;13.49;97.90
23363;BME280;11853;48.080;11.960;2023-05-19T11:49:18;95106.81;;;13.38;99.26
23363;BME280;11853;48.080;11.960;2023-05-19T11:51:44;95114.81;;;13.38;99.78
23363;BME280;11853;48.080;11.960;2023-05-19T11:54:11;95116.66;;;13.37;96.93
23363;BME280;11853;48.080;11.960;2023-05-19T11:56:40;95106.72;;;13.21;99.65
23363;BME280;11853;48.080;11.960;2023-05-19T11:59:09;95106.09;;;13.19;98.39
23363;BME280;11853;48.080;11.960;2023-05-19T12:01:36;95108.06;;;13.17;97.69
23363;BME280;11853;48.080;11.960;2023-05-19T12:04:09;95109.38;;;13.05;99.90
23363;BME280;11853;48.080;11.960;2023-05-19T12:06:34;95114.34;;;13.00;100.00
23363;BME280;11853;48.080;11.960;2023-05-19T12:09:01;95111.38;;;13.11;99.44
23363;BME280;11853;48.080;11.960;2023-05-19T12:11:27;95102.69;;;13.01;99.20
23363;BME280;11853;48.080;11.960;2023-05-19T12:14:00;95103.28;;;12.87;100.00
23363;BME280;11853;48.080;11.960;2023-05-19T12:16:33;95103.94;;;12.80;100.00
23363;BME280;11853;48.080;11.960;2023-05-19T12:19:05;95118.09;;;12.81;100.00
23363;BME280;11853;48.080;11.960;2023-05-19T12:21:31;95106.31;;;12.92;100.00
23363;BME280;11853;48.080;11.960;2023-05-19T12:24:00;95102.69;;;13.01;100.00
23363;BME280;11853;48.080;11.960;2023-05-19T12:26:26;95101.72;;;13.18;97.06
23363;BME280;11853;48.080;11.960;2023-05-19T12:28:52;95100.38;;;13.06;98.56
23363;BME280;11853;48.080;11.960;2023-05-19T12:31:18;95105.06;;;13.12;98.89
23363;BME280;11853;48.080;11.960;2023-05-19T12:33:47;95104.88;;;13.05;99.16
23363;BME280;11853;48.080;11.960;2023-05-19T12:36:16;95105.69;;;13.06;100.00
23363;BME280;11853;48.080;11.960;2023-05-19T12:38:43;95102.38;;;13.12;99.74
23363;BME280;11853;48.080;11.960;2023-05-19T12:41:13;95105.22;;;13.19;98.43
23363;BME280;11853;48.080;11.960;2023-05-19T12:43:39;95104.75;;;13.23;99.38
23363;BME280;11853;48.080;11.960;2023-05-19T12:46:11;95098.97;;;13.28;99.76
23363;BME280;11853;48.080;11.960;2023-05-19T12:48:44;95100.16;;;13.34;100.00
23363;BME280;11853;48.080;11.960;2023-05-19T12:51:15;95093.84;;;13.43;99.57
23363;BME280;11853;48.080;11.960;2023-05-19T12:53:42;95099.84;;;13.53;98.00
23363;BME280;11853;48.080;11.960;2023-05-19T12:56:12;95091.84;;;13.61;96.41
23363;BME280;11853;48.080;11.960;2023-05-19T12:58:42;95095.34;;;13.62;98.93
23363;BME280;11853;48.080;11.960;2023-05-19T13:01:17;95094.53;;;13.69;99.06
23363;BME280;11853;48.080;11.960;2023-05-19T13:03:43;95097.19;;;13.78;95.83
23363;BME280;11853;48.080;11.960;2023-05-19T13:06:10;95090.72;;;13.96;94.07
23363;BME280;11853;48.080;11.960;2023-05-19T13:08:37;95087.38;;;13.78;94.32
23363;BME280;11853;48.080;11.960;2023-05-19T13:11:05;95080.84;;;13.64;97.17
23363;BME280;11853;48.080;11.960;2023-05-19T13:13:31;95079.34;;;13.70;97.43
23363;BME280;11853;48.080;11.960;2023-05-19T13:15:57;95077.34;;;13.64;96.42
23363;BME280;11853;48.080;11.960;2023-05-19T13:18:23;95069.53;;;13.62;98.27